Sopchoppy, Florida
Current Conditions -  °F | °C
As of 4:53 PM on Friday 28 Nov 2014 (Local Time) from KTLH Reporting Station
Clear Clear  
Wind Chill: 14°   Ceiling: Unl
Heat Index: 14°   Visibility: 10mi
Dew Point: -3°   Wind: 5mph
Humidity: 30%   Direction: 350°N
Pressure: 30.31"   Gusts: NA
Location:  30.06°N, 84.49°W
Report Text: KTLH 282153Z 35004KT 10SM CLR 14/M03 A3031 RMK AO2 SLP264 T01391033 $
Loading
Personal Weather Stations






























Interactive Weather Map New forecast layout! Learn more

10-Day Weather Forecast

Advertisements
Track Severe Weather on mobile